Terminal Aerodrome Forecast
Issued by NWS Louisville, KY

Home | Current Version | Previous Version | Text Only | Print | Product List | Glossary On
Versions: 1 2 3 4 5 6 7 8 9 10 11 12 13 14
000
FTUS43 KLMK 222322
TAFBWG
TAF
KBWG 222322Z 2300/2324 16009KT P6SM VCSH SCT014 BKN019 OVC035
     FM230200 17010KT P6SM SCT025 OVC045
     FM230700 19012KT P6SM OVC018
     FM231300 20011G20KT 6SM -SHRA BR BKN015 OVC025
     FM231800 18011G19KT 4SM SHRA VCTS BKN020CB OVC030=

USA.gov is the U.S. government's official web portal to all federal, state and local government web resources and services.